createdAt,value
2022-08-07T00:00:15.080Z,17.69
2022-08-07T00:01:44.015Z,17.69
2022-08-07T00:02:44.227Z,17.74
2022-08-07T00:03:47.302Z,17.72
2022-08-07T00:04:49.204Z,17.72
2022-08-07T00:05:50.737Z,17.74
2022-08-07T00:06:52.479Z,17.74
2022-08-07T00:07:59.730Z,17.69
2022-08-07T00:09:16.987Z,17.64
2022-08-07T00:10:27.050Z,17.64
2022-08-07T00:11:33.233Z,17.59
2022-08-07T00:12:34.927Z,17.56
2022-08-07T00:13:45.433Z,17.56
2022-08-07T00:14:48.106Z,17.53
2022-08-07T00:15:51.862Z,17.50
2022-08-07T00:16:53.389Z,17.48
2022-08-07T00:17:54.869Z,17.46
2022-08-07T00:18:56.363Z,17.48
2022-08-07T00:20:01.058Z,17.46
2022-08-07T00:21:07.909Z,17.47
2022-08-07T00:22:35.077Z,17.50
2022-08-07T00:23:40.147Z,17.52
2022-08-07T00:24:41.876Z,17.53
2022-08-07T00:25:59.217Z,17.50
2022-08-07T00:27:06.511Z,17.41
2022-08-07T00:28:10.639Z,17.38
2022-08-07T00:29:12.264Z,17.33
2022-08-07T00:30:26.746Z,17.31
2022-08-07T00:31:38.037Z,17.35
2022-08-07T00:32:43.061Z,17.38
2022-08-07T00:33:47.701Z,17.37
2022-08-07T00:34:49.432Z,17.33
2022-08-07T00:35:53.150Z,17.34
2022-08-07T00:36:54.891Z,17.33
2022-08-07T00:37:56.590Z,17.37
2022-08-07T00:38:58.392Z,17.34
2022-08-07T00:40:00.605Z,17.32
2022-08-07T00:41:03.862Z,17.30
2022-08-07T00:42:11.375Z,17.26
2022-08-07T00:44:00.754Z,17.22
2022-08-07T00:44:38.277Z,17.17
2022-08-07T00:45:46.629Z,17.20
2022-08-07T00:46:48.228Z,17.19
2022-08-07T00:48:08.829Z,17.16
2022-08-07T00:49:11.649Z,17.12
2022-08-07T00:50:46.642Z,17.08
2022-08-07T00:51:58.525Z,17.07
2022-08-07T00:53:00.493Z,17.03
2022-08-07T00:54:01.985Z,17.00
2022-08-07T00:55:04.600Z,16.96
2022-08-07T00:56:14.023Z,16.96
2022-08-07T00:57:17.181Z,16.96
2022-08-07T00:58:20.525Z,16.98
2022-08-07T00:59:35.253Z,16.98
2022-08-07T01:00:37.535Z,16.91
2022-08-07T01:01:57.875Z,16.91
2022-08-07T01:02:59.776Z,16.89
2022-08-07T01:04:07.440Z,16.89
2022-08-07T01:05:19.294Z,16.86
2022-08-07T01:06:21.877Z,16.89
2022-08-07T01:07:25.021Z,16.89
2022-08-07T01:08:29.483Z,16.88
2022-08-07T01:10:03.891Z,16.94
2022-08-07T01:10:55.176Z,16.91
2022-08-07T01:12:11.076Z,16.89
2022-08-07T01:13:20.624Z,16.89
2022-08-07T01:14:28.440Z,16.85
2022-08-07T01:16:01.121Z,16.83
2022-08-07T01:16:56.101Z,16.84
2022-08-07T01:17:57.712Z,16.84
2022-08-07T01:18:59.293Z,16.78
2022-08-07T01:20:16.653Z,16.69
2022-08-07T01:21:24.374Z,16.64
2022-08-07T01:22:31.203Z,16.66
2022-08-07T01:23:38.002Z,16.66
2022-08-07T01:24:43.100Z,16.63
2022-08-07T01:25:55.146Z,16.61
2022-08-07T01:26:59.751Z,16.58
2022-08-07T01:28:01.654Z,16.57
2022-08-07T01:29:04.619Z,16.53
2022-08-07T01:30:07.980Z,16.51
2022-08-07T01:31:15.409Z,16.46
2022-08-07T01:32:22.276Z,16.34
2022-08-07T01:33:25.221Z,16.30
2022-08-07T01:34:47.327Z,16.27
2022-08-07T01:35:53.220Z,16.28
2022-08-07T01:37:00.405Z,16.25
2022-08-07T01:38:03.991Z,16.23
2022-08-07T01:39:09.868Z,16.25
2022-08-07T01:40:15.574Z,16.31
2022-08-07T01:41:27.307Z,16.28
2022-08-07T01:42:38.705Z,16.25
2022-08-07T01:43:44.655Z,16.24
2022-08-07T01:44:47.972Z,16.15
2022-08-07T01:45:50.638Z,16.15
2022-08-07T01:46:57.317Z,16.21
2022-08-07T01:48:18.500Z,16.23
2022-08-07T01:49:23.906Z,16.19
2022-08-07T01:50:29.074Z,16.14
2022-08-07T01:52:04.037Z,16.13
2022-08-07T01:52:57.011Z,16.15
2022-08-07T01:54:11.630Z,16.11
2022-08-07T01:55:22.369Z,16.15
2022-08-07T01:56:51.459Z,16.10
2022-08-07T01:58:06.819Z,16.16
2022-08-07T01:59:45.994Z,16.14
2022-08-07T02:00:57.950Z,16.15
2022-08-07T02:02:32.598Z,16.12
2022-08-07T02:03:50.401Z,16.10
2022-08-07T02:05:02.446Z,16.12
2022-08-07T02:06:31.986Z,16.10
2022-08-07T02:07:50.237Z,16.09
2022-08-07T02:08:58.737Z,16.07
2022-08-07T02:10:04.049Z,16.09
2022-08-07T02:11:10.996Z,16.10
2022-08-07T02:12:37.784Z,16.00
2022-08-07T02:13:58.067Z,15.99
2022-08-07T02:15:06.793Z,16.02
2022-08-07T02:16:19.950Z,16.04
2022-08-07T02:17:37.457Z,16.00
2022-08-07T02:18:47.245Z,15.96
2022-08-07T02:20:07.732Z,15.93
2022-08-07T02:21:16.188Z,15.81
2022-08-07T02:22:19.504Z,15.80
2022-08-07T02:23:23.928Z,15.78
2022-08-07T02:24:29.678Z,15.68
2022-08-07T02:26:30.478Z,15.69
2022-08-07T02:27:01.479Z,15.77
2022-08-07T02:28:06.990Z,15.78
2022-08-07T02:29:13.904Z,15.74
2022-08-07T02:30:17.376Z,15.72
2022-08-07T02:31:28.718Z,15.69
2022-08-07T02:32:33.661Z,15.71
2022-08-07T02:34:02.861Z,15.70
2022-08-07T02:35:01.114Z,15.71
2022-08-07T02:36:29.499Z,15.70
2022-08-07T02:37:28.280Z,15.74
2022-08-07T02:38:39.306Z,15.69
2022-08-07T02:40:02.167Z,15.70
2022-08-07T02:41:14.732Z,15.72
2022-08-07T02:42:24.176Z,15.77
2022-08-07T02:43:27.874Z,15.80
2022-08-07T02:44:34.614Z,15.74
2022-08-07T02:45:58.082Z,15.76
2022-08-07T02:47:03.405Z,15.78
2022-08-07T02:48:10.214Z,15.80
2022-08-07T02:49:12.629Z,15.86
2022-08-07T02:50:34.250Z,15.80
2022-08-07T02:51:42.717Z,15.72
2022-08-07T02:53:00.846Z,15.71
2022-08-07T02:54:09.884Z,15.78
2022-08-07T02:55:28.236Z,15.81
2022-08-07T02:56:48.582Z,15.82
2022-08-07T02:57:53.580Z,15.78
2022-08-07T02:59:00.260Z,15.74
2022-08-07T03:00:11.221Z,15.75
2022-08-07T03:01:18.593Z,15.77
2022-08-07T03:02:21.595Z,15.78
2022-08-07T03:03:26.617Z,15.65
2022-08-07T03:04:46.642Z,15.44
2022-08-07T03:05:54.114Z,15.49
2022-08-07T03:06:56.537Z,15.51
2022-08-07T03:08:07.608Z,15.57
2022-08-07T03:09:14.448Z,15.63
2022-08-07T03:10:16.699Z,15.60
2022-08-07T03:11:20.138Z,15.63
2022-08-07T03:12:30.729Z,15.67
2022-08-07T03:13:39.168Z,15.67
2022-08-07T03:14:52.475Z,15.73
2022-08-07T03:15:58.652Z,15.68
2022-08-07T03:17:04.531Z,15.61
2022-08-07T03:18:06.726Z,15.46
2022-08-07T03:19:09.346Z,15.40
2022-08-07T03:20:11.497Z,15.34
2022-08-07T03:21:18.907Z,15.16
2022-08-07T03:22:29.676Z,15.11
2022-08-07T03:24:17.821Z,15.04
2022-08-07T03:24:55.853Z,15.09
2022-08-07T03:26:00.300Z,15.13
2022-08-07T03:27:08.988Z,15.20
2022-08-07T03:28:38.434Z,15.24
2022-08-07T03:29:51.428Z,15.26
2022-08-07T03:30:59.894Z,15.26
2022-08-07T03:32:06.461Z,15.25
2022-08-07T03:33:10.245Z,15.30
2022-08-07T03:34:18.602Z,15.25
2022-08-07T03:35:27.490Z,15.25
2022-08-07T03:36:46.198Z,15.22
2022-08-07T03:37:56.523Z,15.23
2022-08-07T03:39:05.573Z,15.25
2022-08-07T03:40:14.887Z,15.30
2022-08-07T03:41:19.167Z,15.34
2022-08-07T03:42:41.089Z,15.30
2022-08-07T03:43:56.882Z,15.31
2022-08-07T03:45:04.515Z,15.35
2022-08-07T03:46:10.491Z,15.39
2022-08-07T03:47:23.070Z,15.43
2022-08-07T03:48:26.309Z,15.43
2022-08-07T03:49:33.034Z,15.47
2022-08-07T03:50:35.147Z,15.50
2022-08-07T03:51:47.409Z,15.44
2022-08-07T03:52:58.920Z,15.44
2022-08-07T03:54:33.704Z,15.46
2022-08-07T03:55:23.229Z,15.49
2022-08-07T03:56:33.372Z,15.50
2022-08-07T03:58:32.940Z,15.55
2022-08-07T03:59:12.997Z,15.64
2022-08-07T04:00:21.061Z,15.61
2022-08-07T04:01:32.495Z,15.62
2022-08-07T04:02:41.090Z,15.64
2022-08-07T04:03:53.350Z,15.65
2022-08-07T04:04:56.895Z,15.69
2022-08-07T04:05:59.999Z,15.67
2022-08-07T04:07:02.870Z,15.65
2022-08-07T04:08:21.032Z,15.69
2022-08-07T04:09:23.988Z,15.71
2022-08-07T04:10:31.881Z,15.74
2022-08-07T04:12:24.947Z,15.80
2022-08-07T04:12:56.869Z,15.82
2022-08-07T04:14:33.058Z,15.84
2022-08-07T04:15:24.027Z,15.86
2022-08-07T04:16:31.240Z,15.89
2022-08-07T04:18:31.434Z,15.88
2022-08-07T04:19:01.381Z,15.88
2022-08-07T04:20:10.941Z,15.94
2022-08-07T04:21:12.614Z,15.96
2022-08-07T04:22:18.930Z,15.94
2022-08-07T04:23:21.468Z,15.95
2022-08-07T04:24:30.369Z,15.93
2022-08-07T04:25:39.309Z,15.99
2022-08-07T04:26:43.892Z,15.91
2022-08-07T04:27:59.382Z,15.81
2022-08-07T04:29:04.171Z,15.76
2022-08-07T04:30:13.386Z,15.81
2022-08-07T04:31:38.776Z,15.83
2022-08-07T04:32:58.392Z,15.90
2022-08-07T04:34:02.289Z,15.97
2022-08-07T04:35:07.096Z,15.97
2022-08-07T04:36:09.268Z,15.96
2022-08-07T04:37:20.216Z,15.99
2022-08-07T04:38:22.947Z,16.09
2022-08-07T04:39:26.271Z,16.09
2022-08-07T04:40:29.971Z,16.04
2022-08-07T04:41:36.854Z,16.11
2022-08-07T04:42:38.590Z,16.14
2022-08-07T04:44:13.036Z,16.18
2022-08-07T04:45:12.810Z,16.23
2022-08-07T04:46:29.534Z,16.24
2022-08-07T04:48:02.041Z,16.22
2022-08-07T04:49:27.920Z,16.22
2022-08-07T04:50:54.032Z,16.25
2022-08-07T04:52:18.369Z,16.30
2022-08-07T04:54:01.320Z,16.33
2022-08-07T04:58:23.768Z,16.29
2022-08-07T04:58:24.301Z,16.29
2022-08-07T04:58:47.545Z,16.30
2022-08-07T05:00:19.003Z,16.35
2022-08-07T05:02:07.619Z,16.37
2022-08-07T05:03:59.552Z,16.42
2022-08-07T05:05:00.037Z,16.47
2022-08-07T05:06:22.268Z,16.53
2022-08-07T05:07:48.650Z,16.55
2022-08-07T05:09:10.676Z,16.58
2022-08-07T05:10:33.249Z,16.54
2022-08-07T05:11:58.951Z,16.56
2022-08-07T05:14:56.260Z,16.58
2022-08-07T05:14:59.233Z,16.65
2022-08-07T05:16:10.356Z,16.74
2022-08-07T05:17:50.186Z,16.75
2022-08-07T05:18:53.078Z,16.80
2022-08-07T05:19:56.986Z,16.85
2022-08-07T05:21:02.496Z,16.86
2022-08-07T05:22:09.453Z,16.91
2022-08-07T05:23:19.140Z,16.92
2022-08-07T05:24:30.397Z,16.93
2022-08-07T05:26:09.897Z,17.00
2022-08-07T05:26:58.799Z,17.09
2022-08-07T05:28:20.351Z,17.12
2022-08-07T05:29:26.052Z,17.12
2022-08-07T05:30:42.556Z,17.23
2022-08-07T05:31:52.608Z,17.42
2022-08-07T05:33:00.395Z,17.70
2022-08-07T05:34:11.402Z,17.94
2022-08-07T05:35:17.584Z,18.06
2022-08-07T05:36:22.893Z,18.22
2022-08-07T05:37:40.943Z,18.38
2022-08-07T05:38:59.731Z,18.45
2022-08-07T05:40:13.645Z,18.52
2022-08-07T05:41:21.903Z,18.48
2022-08-07T05:42:33.808Z,18.38
2022-08-07T05:43:43.500Z,18.31
2022-08-07T05:45:14.028Z,18.26
2022-08-07T05:46:23.063Z,18.16
2022-08-07T05:47:37.915Z,18.06
2022-08-07T05:48:58.382Z,18.05
2022-08-07T05:50:03.415Z,18.10
2022-08-07T05:51:06.957Z,18.11
2022-08-07T05:52:11.974Z,18.09
2022-08-07T05:54:09.581Z,18.02
2022-08-07T05:54:44.481Z,17.92
2022-08-07T05:56:03.272Z,17.84
2022-08-07T05:57:09.571Z,17.96
2022-08-07T05:58:12.184Z,18.10
2022-08-07T05:59:17.277Z,18.24
2022-08-07T06:00:21.617Z,18.34
2022-08-07T06:01:35.692Z,18.53
2022-08-07T06:02:40.164Z,18.66
2022-08-07T06:03:53.936Z,18.75
2022-08-07T06:05:04.811Z,18.76
2022-08-07T06:06:09.449Z,18.70
2022-08-07T06:07:11.667Z,18.63
2022-08-07T06:08:30.732Z,18.54
2022-08-07T06:10:04.273Z,18.41
2022-08-07T06:10:55.468Z,18.36
2022-08-07T06:11:58.970Z,18.37
2022-08-07T06:13:02.156Z,18.47
2022-08-07T06:14:12.888Z,18.63
2022-08-07T06:15:39.200Z,18.78
2022-08-07T06:16:50.347Z,18.94
2022-08-07T06:17:58.282Z,19.03
2022-08-07T06:19:01.955Z,19.09
2022-08-07T06:20:04.697Z,19.01
2022-08-07T06:22:15.859Z,18.99
2022-08-07T06:22:38.853Z,18.93
2022-08-07T06:24:37.692Z,18.80
2022-08-07T06:25:28.818Z,18.65
2022-08-07T06:26:39.815Z,18.67
2022-08-07T06:28:00.115Z,18.66
2022-08-07T06:29:06.535Z,18.63
2022-08-07T06:30:08.927Z,18.74
2022-08-07T06:31:47.065Z,18.88
2022-08-07T06:32:52.474Z,18.98
2022-08-07T06:33:54.148Z,19.06
2022-08-07T06:34:56.269Z,19.19
2022-08-07T06:36:06.900Z,19.32
2022-08-07T06:37:23.100Z,19.50
2022-08-07T06:38:24.572Z,19.59
2022-08-07T06:40:17.476Z,19.63
2022-08-07T06:40:54.562Z,19.59
2022-08-07T06:42:10.231Z,19.67
2022-08-07T06:43:39.541Z,19.78
2022-08-07T06:44:51.056Z,19.96
2022-08-07T06:45:57.367Z,20.04
2022-08-07T06:47:10.632Z,20.03
2022-08-07T06:48:24.815Z,20.05
2022-08-07T06:49:28.069Z,20.10
2022-08-07T06:50:31.777Z,20.14
2022-08-07T06:51:49.428Z,20.23
2022-08-07T06:52:57.053Z,20.33
2022-08-07T06:55:28.822Z,20.54
2022-08-07T06:55:47.915Z,20.71
2022-08-07T06:56:53.715Z,20.90
2022-08-07T06:58:06.728Z,21.02
2022-08-07T07:00:14.048Z,21.12
2022-08-07T07:00:44.390Z,21.14
2022-08-07T07:01:50.588Z,21.21
2022-08-07T07:02:54.189Z,21.31
2022-08-07T07:04:23.692Z,21.22
2022-08-07T07:06:03.103Z,21.16
2022-08-07T07:07:00.814Z,21.11
2022-08-07T07:08:06.572Z,21.11
2022-08-07T07:09:31.176Z,21.04
2022-08-07T07:10:34.493Z,21.04
2022-08-07T07:12:07.790Z,21.15
2022-08-07T07:13:11.586Z,21.23
2022-08-07T07:14:16.222Z,21.23
2022-08-07T07:15:32.730Z,21.19
2022-08-07T07:16:50.815Z,21.12
2022-08-07T07:18:00.171Z,21.08
2022-08-07T07:19:33.805Z,21.11
2022-08-07T07:20:33.446Z,21.20
2022-08-07T07:22:11.600Z,21.30
2022-08-07T07:24:09.725Z,21.33
2022-08-07T07:24:25.518Z,21.30
2022-08-07T07:26:35.623Z,21.21
2022-08-07T07:26:52.456Z,21.20
2022-08-07T07:28:41.948Z,21.24
2022-08-07T07:29:56.107Z,21.32
2022-08-07T07:31:01.947Z,21.41
2022-08-07T07:32:08.458Z,21.52
2022-08-07T07:33:13.675Z,21.58
2022-08-07T07:34:21.981Z,21.66
2022-08-07T07:35:51.847Z,21.70
2022-08-07T07:37:14.489Z,21.82
2022-08-07T07:38:24.026Z,21.94
2022-08-07T07:39:35.879Z,22.06
2022-08-07T07:40:50.748Z,22.16
2022-08-07T07:42:08.702Z,22.23
2022-08-07T07:43:18.706Z,22.32
2022-08-07T07:44:31.468Z,22.37
2022-08-07T07:46:37.490Z,22.50
2022-08-07T07:47:01.246Z,22.54
2022-08-07T07:48:34.878Z,22.52
2022-08-07T07:50:31.285Z,22.45
2022-08-07T07:51:02.146Z,22.50
2022-08-07T07:52:05.743Z,22.53
2022-08-07T07:53:20.757Z,22.56
2022-08-07T07:54:27.428Z,22.62
2022-08-07T07:55:37.174Z,22.74
2022-08-07T07:56:41.084Z,22.83
2022-08-07T07:57:52.879Z,22.87
2022-08-07T07:58:56.848Z,22.91
2022-08-07T07:59:58.904Z,22.91
2022-08-07T08:01:02.648Z,22.94
2022-08-07T08:02:33.984Z,23.00
2022-08-07T08:04:10.836Z,23.09
2022-08-07T08:05:02.745Z,23.22
2022-08-07T08:06:06.823Z,23.28
2022-08-07T08:07:15.137Z,23.27
2022-08-07T08:08:35.161Z,23.36
2022-08-07T08:09:51.725Z,23.49
2022-08-07T08:10:55.523Z,23.55
2022-08-07T08:12:02.694Z,23.58
2022-08-07T08:13:10.660Z,23.61
2022-08-07T08:14:19.261Z,23.57
2022-08-07T08:15:29.401Z,23.62
2022-08-07T08:16:52.000Z,23.78
2022-08-07T08:17:58.805Z,23.86
2022-08-07T08:20:19.461Z,23.75
2022-08-07T08:20:49.424Z,23.76
2022-08-07T08:21:55.541Z,23.81
2022-08-07T08:23:10.417Z,23.81
2022-08-07T08:24:34.360Z,23.84
2022-08-07T08:25:42.641Z,23.86
2022-08-07T08:26:55.058Z,23.92
2022-08-07T08:28:04.162Z,23.91
2022-08-07T08:29:08.299Z,23.96
2022-08-07T08:30:14.274Z,23.90
2022-08-07T08:31:58.382Z,23.90
2022-08-07T08:33:01.775Z,23.89
2022-08-07T08:34:06.607Z,24.04
2022-08-07T08:35:12.118Z,24.10
2022-08-07T08:36:25.788Z,24.12
2022-08-07T08:37:59.760Z,24.22
2022-08-07T08:38:59.997Z,24.23
2022-08-07T08:40:11.484Z,24.17
2022-08-07T08:41:23.016Z,24.17
2022-08-07T08:42:43.112Z,24.08
2022-08-07T08:44:06.766Z,24.06
2022-08-07T08:45:58.510Z,24.12
2022-08-07T08:47:10.013Z,24.14
2022-08-07T08:48:39.997Z,24.25
2022-08-07T08:50:02.434Z,24.33
2022-08-07T08:51:49.386Z,24.25
2022-08-07T08:53:04.841Z,24.15
2022-08-07T08:54:25.111Z,24.13
2022-08-07T08:55:54.730Z,24.18
2022-08-07T08:57:08.131Z,24.16
2022-08-07T08:58:28.981Z,24.28
2022-08-07T08:59:48.035Z,24.40
2022-08-07T09:00:54.773Z,24.40
2022-08-07T09:02:17.163Z,24.29
2022-08-07T09:03:55.869Z,24.10
2022-08-07T09:05:02.299Z,24.16
2022-08-07T09:06:11.482Z,24.11
2022-08-07T09:07:16.031Z,23.93
2022-08-07T09:08:30.910Z,23.46
2022-08-07T09:09:57.250Z,23.25
2022-08-07T09:11:14.091Z,23.33
2022-08-07T09:13:19.915Z,23.62
2022-08-07T09:16:20.257Z,23.64
2022-08-07T09:16:36.372Z,23.64
2022-08-07T09:18:23.615Z,23.86
2022-08-07T09:19:52.015Z,24.01
2022-08-07T09:21:34.097Z,24.16
2022-08-07T09:24:33.733Z,24.35
2022-08-07T09:25:17.382Z,24.61
2022-08-07T09:26:33.425Z,24.61
2022-08-07T09:28:01.238Z,24.52
2022-08-07T09:30:04.372Z,24.34
2022-08-07T09:31:02.926Z,24.15
2022-08-07T09:32:20.912Z,24.11
2022-08-07T09:33:57.703Z,24.10
2022-08-07T09:36:04.387Z,24.08
2022-08-07T09:37:20.876Z,23.96
2022-08-07T09:38:49.896Z,23.81
2022-08-07T09:40:05.770Z,23.82
2022-08-07T09:41:58.357Z,23.78
2022-08-07T09:43:40.159Z,23.56
2022-08-07T09:47:25.643Z,23.74
2022-08-07T09:47:50.135Z,23.67
2022-08-07T09:48:01.637Z,23.81
2022-08-07T09:50:01.046Z,24.05
2022-08-07T09:52:15.482Z,24.11
2022-08-07T09:52:52.087Z,24.02
2022-08-07T09:54:02.635Z,24.05
2022-08-07T09:55:28.732Z,23.93
2022-08-07T09:56:53.275Z,23.86
2022-08-07T09:58:48.580Z,23.92
2022-08-07T10:00:03.539Z,23.81
2022-08-07T10:01:52.631Z,23.70
2022-08-07T10:04:03.584Z,23.64
2022-08-07T10:05:13.901Z,23.99
2022-08-07T10:06:49.077Z,24.35
2022-08-07T10:08:33.218Z,24.30
2022-08-07T10:10:00.768Z,24.39
2022-08-07T10:12:01.612Z,24.68
2022-08-07T10:13:29.794Z,24.70
2022-08-07T10:15:15.075Z,24.81
2022-08-07T10:16:41.183Z,24.78
2022-08-07T10:18:11.092Z,24.76
2022-08-07T10:19:30.659Z,24.56
2022-08-07T10:20:54.465Z,24.40
2022-08-07T10:22:17.851Z,24.41
2022-08-07T10:24:06.658Z,24.59
2022-08-07T10:25:32.926Z,24.82
2022-08-07T10:27:15.706Z,24.84
2022-08-07T10:28:39.472Z,24.84
2022-08-07T10:30:07.335Z,24.77
2022-08-07T10:31:41.822Z,24.82
2022-08-07T10:33:08.325Z,24.84
2022-08-07T10:34:49.776Z,24.55
2022-08-07T10:36:36.319Z,24.55
2022-08-07T10:38:21.653Z,24.61
2022-08-07T10:40:08.772Z,24.73
2022-08-07T10:41:46.461Z,24.71
2022-08-07T10:43:15.253Z,24.73
2022-08-07T10:44:38.722Z,24.73
2022-08-07T10:45:57.713Z,24.87
2022-08-07T10:47:14.152Z,24.91
2022-08-07T10:48:34.578Z,25.05
2022-08-07T10:49:58.161Z,25.35
2022-08-07T10:51:07.451Z,25.26
2022-08-07T10:52:31.746Z,25.39
2022-08-07T10:54:00.392Z,25.63
2022-08-07T10:55:26.784Z,25.87
2022-08-07T10:56:47.519Z,25.97
2022-08-07T10:58:33.244Z,26.00
2022-08-07T11:00:02.186Z,25.95
2022-08-07T11:01:23.775Z,25.89
2022-08-07T11:02:53.642Z,25.72
2022-08-07T11:04:23.379Z,25.48
2022-08-07T11:06:09.445Z,25.40
2022-08-07T11:07:58.582Z,25.17
2022-08-07T11:09:03.784Z,24.94
2022-08-07T11:11:00.103Z,24.76
2022-08-07T11:12:11.832Z,24.73
2022-08-07T11:14:44.915Z,24.69
2022-08-07T11:15:00.181Z,24.68
2022-08-07T11:16:15.198Z,24.47
2022-08-07T11:17:45.521Z,24.36
2022-08-07T11:19:03.953Z,24.23
2022-08-07T11:20:22.412Z,24.10
2022-08-07T11:21:53.671Z,24.25
2022-08-07T11:23:10.305Z,24.30
2022-08-07T11:24:45.385Z,24.31
2022-08-07T11:26:13.451Z,24.19
2022-08-07T11:28:01.429Z,24.09
2022-08-07T11:29:13.370Z,24.08
2022-08-07T11:30:42.171Z,24.07
2022-08-07T11:31:49.753Z,23.97
2022-08-07T11:33:14.038Z,23.90
2022-08-07T11:34:36.711Z,23.84
2022-08-07T11:36:11.108Z,23.90
2022-08-07T11:37:57.542Z,23.90
2022-08-07T11:39:14.557Z,23.94
2022-08-07T11:40:49.890Z,24.00
2022-08-07T11:42:18.953Z,24.03
2022-08-07T11:43:41.540Z,24.02
2022-08-07T11:44:58.666Z,23.98
2022-08-07T11:46:22.091Z,24.16
2022-08-07T11:48:03.371Z,24.32
2022-08-07T11:50:25.156Z,24.46
2022-08-07T11:51:41.317Z,24.71
2022-08-07T11:52:56.449Z,25.03
2022-08-07T11:54:11.919Z,25.32
2022-08-07T11:56:09.431Z,25.28
2022-08-07T11:57:57.893Z,25.15
2022-08-07T12:00:09.820Z,24.95
2022-08-07T12:01:02.186Z,24.85
2022-08-07T12:02:31.107Z,24.77
2022-08-07T12:04:00.605Z,24.65
2022-08-07T12:05:28.951Z,24.48
2022-08-07T12:06:55.390Z,24.41
2022-08-07T12:08:11.470Z,24.35
2022-08-07T12:09:36.411Z,24.25
2022-08-07T12:10:42.217Z,24.30
2022-08-07T12:12:09.414Z,24.18
2022-08-07T12:13:35.356Z,24.20
2022-08-07T12:14:56.482Z,24.16
2022-08-07T12:16:09.160Z,24.26
2022-08-07T12:17:33.502Z,24.30
2022-08-07T12:18:45.706Z,24.28
2022-08-07T12:20:06.302Z,24.30
2022-08-07T12:22:35.790Z,24.30
2022-08-07T12:24:06.208Z,24.30
2022-08-07T12:25:07.866Z,24.25
2022-08-07T12:26:35.477Z,24.18
2022-08-07T12:28:08.703Z,24.24
2022-08-07T12:29:38.235Z,24.27
2022-08-07T12:30:46.864Z,24.27
2022-08-07T12:32:08.613Z,24.17
2022-08-07T12:33:28.169Z,24.26
2022-08-07T12:34:49.471Z,24.25
2022-08-07T12:35:58.047Z,24.25
2022-08-07T12:37:01.430Z,24.31
2022-08-07T12:38:16.151Z,24.49
2022-08-07T12:39:43.027Z,24.58
2022-08-07T12:40:54.028Z,24.79
2022-08-07T12:41:56.726Z,24.97
2022-08-07T12:43:09.490Z,25.10
2022-08-07T12:44:17.150Z,25.23
2022-08-07T12:45:26.535Z,25.30
2022-08-07T12:46:53.947Z,25.39
2022-08-07T12:48:41.181Z,25.31
2022-08-07T12:50:48.856Z,25.50
2022-08-07T12:52:13.690Z,25.60
2022-08-07T12:53:28.076Z,25.69
2022-08-07T12:54:38.860Z,25.67
2022-08-07T12:56:09.261Z,25.79
2022-08-07T12:57:12.109Z,25.84
2022-08-07T12:58:21.699Z,25.93
2022-08-07T12:59:53.960Z,26.06
2022-08-07T13:01:08.593Z,26.08
2022-08-07T13:02:59.248Z,25.95
2022-08-07T13:04:38.101Z,25.47
2022-08-07T13:06:21.571Z,25.62
2022-08-07T13:08:14.466Z,25.77
2022-08-07T13:10:37.113Z,25.53
2022-08-07T13:10:52.824Z,25.17
2022-08-07T13:12:28.795Z,24.96
2022-08-07T13:14:03.328Z,24.75
2022-08-07T13:15:23.517Z,24.66
2022-08-07T13:16:40.686Z,24.76
2022-08-07T13:17:54.300Z,24.80
2022-08-07T13:19:46.204Z,24.93
2022-08-07T13:20:55.881Z,25.12
2022-08-07T13:22:27.852Z,25.26
2022-08-07T13:24:02.052Z,25.35
2022-08-07T13:25:09.229Z,25.40
2022-08-07T13:26:26.450Z,25.37
2022-08-07T13:28:13.902Z,25.30
2022-08-07T13:29:23.681Z,25.26
2022-08-07T13:30:40.600Z,25.26
2022-08-07T13:31:57.266Z,25.31
2022-08-07T13:34:29.851Z,25.49
2022-08-07T13:35:01.104Z,25.58
2022-08-07T13:36:19.032Z,25.62
2022-08-07T13:37:58.722Z,25.66
2022-08-07T13:39:49.240Z,25.70
2022-08-07T13:41:01.590Z,25.81
2022-08-07T13:42:04.456Z,25.83
2022-08-07T13:43:11.894Z,25.79
2022-08-07T13:44:25.799Z,25.91
2022-08-07T13:46:11.756Z,25.93
2022-08-07T13:46:52.428Z,25.96
2022-08-07T13:48:06.923Z,26.06
2022-08-07T13:50:33.935Z,26.06
2022-08-07T13:50:44.981Z,26.03
2022-08-07T13:52:31.779Z,26.03
2022-08-07T13:53:59.514Z,26.11
2022-08-07T13:54:56.032Z,26.06
2022-08-07T13:55:59.835Z,26.02
2022-08-07T13:57:05.309Z,26.04
2022-08-07T13:58:16.665Z,26.12
2022-08-07T13:59:32.639Z,26.02
2022-08-07T14:00:50.361Z,26.04
2022-08-07T14:02:04.496Z,26.08
2022-08-07T14:03:08.242Z,26.13
2022-08-07T14:04:16.825Z,26.21
2022-08-07T14:05:24.105Z,25.98
2022-08-07T14:06:32.602Z,25.71
2022-08-07T14:08:00.076Z,25.74
2022-08-07T14:09:04.922Z,25.77
2022-08-07T14:10:20.468Z,25.70
2022-08-07T14:11:53.374Z,25.71
2022-08-07T14:13:00.601Z,25.68
2022-08-07T14:14:10.432Z,25.64
2022-08-07T14:15:27.970Z,25.53
2022-08-07T14:16:36.183Z,25.51
2022-08-07T14:18:15.605Z,25.54
2022-08-07T14:20:42.905Z,25.51
2022-08-07T14:20:49.096Z,25.47
2022-08-07T14:22:01.771Z,25.44
2022-08-07T14:23:31.749Z,25.43
2022-08-07T14:24:42.423Z,25.23
2022-08-07T14:25:54.413Z,25.03
2022-08-07T14:26:59.762Z,24.89
2022-08-07T14:28:12.973Z,24.76
2022-08-07T14:30:07.854Z,24.66
2022-08-07T14:30:46.937Z,24.60
2022-08-07T14:31:56.385Z,24.62
2022-08-07T14:33:04.460Z,24.56
2022-08-07T14:34:07.545Z,24.60
2022-08-07T14:35:24.139Z,24.61
2022-08-07T14:36:41.799Z,24.60
2022-08-07T14:37:47.174Z,24.66
2022-08-07T14:39:12.570Z,24.65
2022-08-07T14:40:35.378Z,24.63
2022-08-07T14:42:18.311Z,24.61
2022-08-07T14:43:57.810Z,24.67
2022-08-07T14:44:30.856Z,24.74
2022-08-07T14:45:46.724Z,24.82
2022-08-07T14:48:21.610Z,24.95
2022-08-07T14:49:56.923Z,24.89
2022-08-07T14:50:58.090Z,24.98
2022-08-07T14:52:10.506Z,25.06
2022-08-07T14:53:13.943Z,25.16
2022-08-07T14:54:33.033Z,25.17
2022-08-07T14:55:55.850Z,25.24
2022-08-07T14:57:00.310Z,25.31
2022-08-07T14:58:05.881Z,25.31
2022-08-07T14:59:14.041Z,25.28
2022-08-07T15:00:34.790Z,25.32
2022-08-07T15:01:42.463Z,25.41
2022-08-07T15:04:26.343Z,25.23
2022-08-07T15:05:30.728Z,25.23
2022-08-07T15:06:37.957Z,25.17
2022-08-07T15:07:47.516Z,25.09
2022-08-07T15:08:55.025Z,25.09
2022-08-07T15:14:17.584Z,25.32
2022-08-07T15:15:40.970Z,25.38
2022-08-07T15:16:55.108Z,25.33
2022-08-07T15:18:02.620Z,25.21
2022-08-07T15:20:55.545Z,24.65
2022-08-07T15:25:12.890Z,24.87
2022-08-07T15:26:21.588Z,24.86
2022-08-07T15:27:25.813Z,24.82
2022-08-07T15:28:38.002Z,24.72
2022-08-07T15:31:12.908Z,24.60
2022-08-07T15:33:01.255Z,24.80
2022-08-07T15:34:04.366Z,24.79
2022-08-07T15:35:13.662Z,24.87
2022-08-07T15:37:03.414Z,24.84
2022-08-07T15:38:04.566Z,24.81
2022-08-07T15:39:04.386Z,24.84
2022-08-07T15:40:34.918Z,24.89
2022-08-07T15:42:46.644Z,24.89
2022-08-07T15:43:33.273Z,24.73
2022-08-07T15:44:51.648Z,24.63
2022-08-07T15:46:04.533Z,24.63
2022-08-07T15:47:16.897Z,24.63
2022-08-07T15:50:06.810Z,24.54
2022-08-07T15:51:11.931Z,24.57
2022-08-07T15:52:17.176Z,24.62
2022-08-07T15:53:52.646Z,24.61
2022-08-07T15:54:56.436Z,24.67
2022-08-07T15:56:07.054Z,24.74
2022-08-07T15:57:28.062Z,24.84
2022-08-07T15:58:59.064Z,24.94
2022-08-07T16:00:04.383Z,24.93
2022-08-07T16:01:39.426Z,24.87
2022-08-07T16:02:46.914Z,24.89
2022-08-07T16:03:57.421Z,24.88
2022-08-07T16:05:01.632Z,24.90
2022-08-07T16:06:04.170Z,24.92
2022-08-07T16:08:32.056Z,24.99
2022-08-07T16:08:38.551Z,25.00
2022-08-07T16:09:51.804Z,25.01
2022-08-07T16:11:28.994Z,25.02
2022-08-07T16:12:39.106Z,25.06
2022-08-07T16:13:58.805Z,25.03
2022-08-07T16:15:57.380Z,24.96
2022-08-07T16:16:49.846Z,24.86
2022-08-07T16:18:08.320Z,24.79
2022-08-07T16:19:42.701Z,24.73
2022-08-07T16:22:05.596Z,24.72
2022-08-07T16:23:54.000Z,24.47
2022-08-07T16:24:52.718Z,24.41
2022-08-07T16:26:07.023Z,24.36
2022-08-07T16:27:21.880Z,24.20
2022-08-07T16:29:18.872Z,23.99
2022-08-07T16:30:29.681Z,23.96
2022-08-07T16:31:51.129Z,23.96
2022-08-07T16:34:03.053Z,23.98
2022-08-07T16:34:50.753Z,23.96
2022-08-07T16:36:34.624Z,23.97
2022-08-07T16:38:50.778Z,23.94
2022-08-07T16:40:07.418Z,23.98
2022-08-07T16:41:10.962Z,23.97
2022-08-07T16:42:52.285Z,23.88
2022-08-07T16:44:31.785Z,23.82
2022-08-07T16:46:40.365Z,23.74